sensor_id;sensor_type;location;lat;lon;timestamp;pressure;altitude;pressure_sealevel;temperature;humidity
5380;BME280;2713;42.680;23.310;2023-09-07T00:01:55;95537.00;;;21.48;69.80
5380;BME280;2713;42.680;23.310;2023-09-07T00:04:22;95530.25;;;21.41;69.89
5380;BME280;2713;42.680;23.310;2023-09-07T00:06:49;95528.59;;;21.51;69.64
5380;BME280;2713;42.680;23.310;2023-09-07T00:09:16;95528.53;;;21.46;69.76
5380;BME280;2713;42.680;23.310;2023-09-07T00:11:45;95519.59;;;21.36;70.08
5380;BME280;2713;42.680;23.310;2023-09-07T00:14:12;95522.44;;;21.34;70.18
5380;BME280;2713;42.680;23.310;2023-09-07T00:16:38;95520.75;;;21.28;70.54
5380;BME280;2713;42.680;23.310;2023-09-07T00:19:05;95526.19;;;21.10;71.27
5380;BME280;2713;42.680;23.310;2023-09-07T00:21:32;95528.38;;;21.01;71.95
5380;BME280;2713;42.680;23.310;2023-09-07T00:23:59;95530.44;;;21.11;71.96
5380;BME280;2713;42.680;23.310;2023-09-07T00:26:30;95533.75;;;21.06;72.00
5380;BME280;2713;42.680;23.310;2023-09-07T00:28:58;95529.38;;;21.00;72.43
5380;BME280;2713;42.680;23.310;2023-09-07T00:31:25;95526.88;;;20.94;72.78
5380;BME280;2713;42.680;23.310;2023-09-07T00:33:52;95528.03;;;20.86;73.28
5380;BME280;2713;42.680;23.310;2023-09-07T00:36:19;95521.38;;;20.84;73.75
5380;BME280;2713;42.680;23.310;2023-09-07T00:38:45;95522.06;;;20.91;73.66
5380;BME280;2713;42.680;23.310;2023-09-07T00:41:13;95527.56;;;20.89;73.58
5380;BME280;2713;42.680;23.310;2023-09-07T00:43:40;95521.63;;;20.70;74.35
5380;BME280;2713;42.680;23.310;2023-09-07T00:46:09;95523.22;;;20.71;74.35
5380;BME280;2713;42.680;23.310;2023-09-07T00:48:36;95520.25;;;20.68;74.66
5380;BME280;2713;42.680;23.310;2023-09-07T00:51:03;95509.09;;;20.78;74.30
5380;BME280;2713;42.680;23.310;2023-09-07T00:53:29;95519.31;;;20.74;74.54
5380;BME280;2713;42.680;23.310;2023-09-07T00:55:57;95514.72;;;20.69;75.04
5380;BME280;2713;42.680;23.310;2023-09-07T00:58:24;95512.41;;;20.73;74.69
5380;BME280;2713;42.680;23.310;2023-09-07T01:00:51;95515.31;;;20.71;74.79
5380;BME280;2713;42.680;23.310;2023-09-07T01:03:19;95512.66;;;20.71;75.24
5380;BME280;2713;42.680;23.310;2023-09-07T01:05:51;95514.25;;;20.72;75.13
5380;BME280;2713;42.680;23.310;2023-09-07T01:08:23;95513.34;;;20.79;75.06
5380;BME280;2713;42.680;23.310;2023-09-07T01:10:51;95513.44;;;20.72;75.47
5380;BME280;2713;42.680;23.310;2023-09-07T01:13:18;95511.84;;;20.59;76.43
5380;BME280;2713;42.680;23.310;2023-09-07T01:15:45;95506.34;;;20.61;76.29
5380;BME280;2713;42.680;23.310;2023-09-07T01:18:13;95511.28;;;20.57;76.85
5380;BME280;2713;42.680;23.310;2023-09-07T01:20:42;95506.91;;;20.63;76.64
5380;BME280;2713;42.680;23.310;2023-09-07T01:23:12;95514.03;;;20.62;76.85
5380;BME280;2713;42.680;23.310;2023-09-07T01:25:40;95515.97;;;20.55;77.20
5380;BME280;2713;42.680;23.310;2023-09-07T01:28:07;95515.66;;;20.40;78.24
5380;BME280;2713;42.680;23.310;2023-09-07T01:30:35;95516.66;;;20.39;77.93
5380;BME280;2713;42.680;23.310;2023-09-07T01:33:04;95506.00;;;20.34;78.05
5380;BME280;2713;42.680;23.310;2023-09-07T01:35:32;95513.22;;;20.39;78.12
5380;BME280;2713;42.680;23.310;2023-09-07T01:38:00;95509.22;;;20.36;78.15
5380;BME280;2713;42.680;23.310;2023-09-07T01:40:28;95505.53;;;20.37;78.40
5380;BME280;2713;42.680;23.310;2023-09-07T01:42:55;95518.72;;;20.49;78.20
5380;BME280;2713;42.680;23.310;2023-09-07T01:45:21;95513.56;;;20.42;78.33
5380;BME280;2713;42.680;23.310;2023-09-07T01:47:49;95519.78;;;20.48;78.25
5380;BME280;2713;42.680;23.310;2023-09-07T01:50:16;95513.56;;;20.42;78.25
5380;BME280;2713;42.680;23.310;2023-09-07T01:52:46;95515.06;;;20.38;78.53
5380;BME280;2713;42.680;23.310;2023-09-07T01:55:13;95515.41;;;20.30;79.07
5380;BME280;2713;42.680;23.310;2023-09-07T01:57:41;95513.47;;;20.37;78.99
5380;BME280;2713;42.680;23.310;2023-09-07T02:00:09;95515.06;;;20.38;79.05
5380;BME280;2713;42.680;23.310;2023-09-07T02:02:38;95513.00;;;20.40;79.03
5380;BME280;2713;42.680;23.310;2023-09-07T02:05:05;95514.03;;;20.39;79.66
5380;BME280;2713;42.680;23.310;2023-09-07T02:07:33;95515.19;;;20.43;79.66
5380;BME280;2713;42.680;23.310;2023-09-07T02:10:00;95506.47;;;20.54;79.19
5380;BME280;2713;42.680;23.310;2023-09-07T02:12:28;95512.53;;;20.78;77.97
5380;BME280;2713;42.680;23.310;2023-09-07T02:14:58;95518.63;;;20.79;78.19
5380;BME280;2713;42.680;23.310;2023-09-07T02:17:25;95508.75;;;20.51;79.52
5380;BME280;2713;42.680;23.310;2023-09-07T02:19:52;95510.38;;;20.40;80.03
5380;BME280;2713;42.680;23.310;2023-09-07T02:22:19;95513.22;;;20.27;81.07
5380;BME280;2713;42.680;23.310;2023-09-07T02:24:46;95521.25;;;20.32;80.77
5380;BME280;2713;42.680;23.310;2023-09-07T02:27:12;95515.41;;;20.30;81.08
5380;BME280;2713;42.680;23.310;2023-09-07T02:29:39;95513.41;;;20.25;80.99
5380;BME280;2713;42.680;23.310;2023-09-07T02:32:08;95524.56;;;20.28;81.09
5380;BME280;2713;42.680;23.310;2023-09-07T02:34:35;95519.50;;;20.26;81.20
5380;BME280;2713;42.680;23.310;2023-09-07T02:37:03;95520.88;;;20.17;81.34
5380;BME280;2713;42.680;23.310;2023-09-07T02:39:30;95519.31;;;19.98;81.78
5380;BME280;2713;42.680;23.310;2023-09-07T02:41:57;95521.75;;;20.11;81.14
5380;BME280;2713;42.680;23.310;2023-09-07T02:44:23;95519.38;;;20.09;81.44
5380;BME280;2713;42.680;23.310;2023-09-07T02:46:50;95529.47;;;20.12;81.22
5380;BME280;2713;42.680;23.310;2023-09-07T02:49:19;95524.88;;;20.19;81.33
5380;BME280;2713;42.680;23.310;2023-09-07T02:51:45;95525.81;;;20.13;81.28
5380;BME280;2713;42.680;23.310;2023-09-07T02:54:12;95525.00;;;20.13;81.35
5380;BME280;2713;42.680;23.310;2023-09-07T02:56:39;95527.00;;;20.29;81.14
5380;BME280;2713;42.680;23.310;2023-09-07T02:59:06;95520.88;;;20.17;81.70
5380;BME280;2713;42.680;23.310;2023-09-07T03:01:34;95519.56;;;20.08;82.65
5380;BME280;2713;42.680;23.310;2023-09-07T03:04:00;95511.97;;;19.88;83.13
5380;BME280;2713;42.680;23.310;2023-09-07T03:06:30;95525.28;;;19.93;83.56
5380;BME280;2713;42.680;23.310;2023-09-07T03:08:57;95521.97;;;19.98;83.07
5380;BME280;2713;42.680;23.310;2023-09-07T03:11:24;95533.22;;;20.05;82.94
5380;BME280;2713;42.680;23.310;2023-09-07T03:14:20;95524.03;;;19.96;82.72
5380;BME280;2713;42.680;23.310;2023-09-07T03:16:47;95517.94;;;19.95;82.70
5380;BME280;2713;42.680;23.310;2023-09-07T03:19:16;95520.81;;;19.94;83.01
5380;BME280;2713;42.680;23.310;2023-09-07T03:21:44;95516.22;;;19.89;82.89
5380;BME280;2713;42.680;23.310;2023-09-07T03:24:11;95525.47;;;19.80;83.54
5380;BME280;2713;42.680;23.310;2023-09-07T03:26:41;95526.09;;;19.94;83.55
5380;BME280;2713;42.680;23.310;2023-09-07T03:29:09;95510.09;;;19.77;83.64
5380;BME280;2713;42.680;23.310;2023-09-07T03:31:35;95528.97;;;19.92;83.75
5380;BME280;2713;42.680;23.310;2023-09-07T03:34:02;95529.78;;;19.93;83.79
5380;BME280;2713;42.680;23.310;2023-09-07T03:36:30;95528.72;;;19.94;83.91
5380;BME280;2713;42.680;23.310;2023-09-07T03:38:58;95535.41;;;19.96;84.38
5380;BME280;2713;42.680;23.310;2023-09-07T03:41:25;95534.09;;;19.87;84.72
5380;BME280;2713;42.680;23.310;2023-09-07T03:43:56;95531.56;;;19.81;85.79
5380;BME280;2713;42.680;23.310;2023-09-07T03:46:23;95529.50;;;19.83;85.89
5380;BME280;2713;42.680;23.310;2023-09-07T03:48:50;95538.91;;;19.90;86.03
5380;BME280;2713;42.680;23.310;2023-09-07T03:51:17;95541.75;;;19.77;86.64
5380;BME280;2713;42.680;23.310;2023-09-07T03:53:44;95543.47;;;19.71;86.88
5380;BME280;2713;42.680;23.310;2023-09-07T03:56:12;95546.22;;;19.77;87.10
5380;BME280;2713;42.680;23.310;2023-09-07T03:58:39;95556.78;;;19.77;87.62
5380;BME280;2713;42.680;23.310;2023-09-07T04:01:06;95549.03;;;19.63;88.62
5380;BME280;2713;42.680;23.310;2023-09-07T04:03:33;95562.13;;;19.70;88.10
5380;BME280;2713;42.680;23.310;2023-09-07T04:06:00;95558.66;;;19.58;88.20
5380;BME280;2713;42.680;23.310;2023-09-07T04:08:27;95560.59;;;19.62;88.46
5380;BME280;2713;42.680;23.310;2023-09-07T04:10:54;95563.47;;;19.61;88.68
5380;BME280;2713;42.680;23.310;2023-09-07T04:13:22;95564.78;;;19.70;88.47
5380;BME280;2713;42.680;23.310;2023-09-07T04:15:49;95559.81;;;19.62;89.06
5380;BME280;2713;42.680;23.310;2023-09-07T04:18:16;95537.19;;;19.36;89.64
5380;BME280;2713;42.680;23.310;2023-09-07T04:20:43;95532.81;;;19.48;89.00
5380;BME280;2713;42.680;23.310;2023-09-07T04:23:11;95555.66;;;19.54;89.43
5380;BME280;2713;42.680;23.310;2023-09-07T04:25:38;95551.31;;;19.60;89.56
5380;BME280;2713;42.680;23.310;2023-09-07T04:28:05;95561.22;;;19.64;89.38
5380;BME280;2713;42.680;23.310;2023-09-07T04:30:37;95554.91;;;19.65;89.77
5380;BME280;2713;42.680;23.310;2023-09-07T04:33:04;95553.38;;;19.58;89.95
5380;BME280;2713;42.680;23.310;2023-09-07T04:35:32;95555.34;;;19.62;89.80
5380;BME280;2713;42.680;23.310;2023-09-07T04:37:59;95557.56;;;19.65;89.24
5380;BME280;2713;42.680;23.310;2023-09-07T04:40:26;95556.03;;;19.58;89.23
5380;BME280;2713;42.680;23.310;2023-09-07T04:42:52;95564.13;;;19.56;89.77
5380;BME280;2713;42.680;23.310;2023-09-07T04:45:19;95563.56;;;19.54;89.18
5380;BME280;2713;42.680;23.310;2023-09-07T04:47:49;95568.41;;;19.57;88.92
5380;BME280;2713;42.680;23.310;2023-09-07T04:50:16;95559.69;;;19.57;88.46
5380;BME280;2713;42.680;23.310;2023-09-07T04:52:43;95571.47;;;19.54;89.02
5380;BME280;2713;42.680;23.310;2023-09-07T04:55:10;95571.25;;;19.56;89.61
5380;BME280;2713;42.680;23.310;2023-09-07T04:57:36;95572.06;;;19.56;89.47
5380;BME280;2713;42.680;23.310;2023-09-07T05:00:05;95554.31;;;19.63;88.48
5380;BME280;2713;42.680;23.310;2023-09-07T05:02:33;95579.22;;;19.67;88.52
5380;BME280;2713;42.680;23.310;2023-09-07T05:05:06;95575.84;;;19.60;88.79
5380;BME280;2713;42.680;23.310;2023-09-07T05:07:32;95568.22;;;19.70;88.53
5380;BME280;2713;42.680;23.310;2023-09-07T05:09:59;95570.66;;;19.72;87.79
5380;BME280;2713;42.680;23.310;2023-09-07T05:12:26;95578.31;;;19.73;87.57
5380;BME280;2713;42.680;23.310;2023-09-07T05:14:53;95572.59;;;19.77;87.37
5380;BME280;2713;42.680;23.310;2023-09-07T05:17:20;95571.31;;;19.67;88.18
5380;BME280;2713;42.680;23.310;2023-09-07T05:19:47;95580.03;;;19.68;87.69
5380;BME280;2713;42.680;23.310;2023-09-07T05:22:15;95571.56;;;19.78;87.54
5380;BME280;2713;42.680;23.310;2023-09-07T05:24:42;95585.22;;;19.74;88.50
5380;BME280;2713;42.680;23.310;2023-09-07T05:27:12;95581.56;;;19.76;88.62
5380;BME280;2713;42.680;23.310;2023-09-07T05:29:39;95585.78;;;19.77;88.91
5380;BME280;2713;42.680;23.310;2023-09-07T05:32:05;95584.06;;;19.70;89.12
5380;BME280;2713;42.680;23.310;2023-09-07T05:34:34;95584.50;;;19.67;89.11
5380;BME280;2713;42.680;23.310;2023-09-07T05:37:01;95580.78;;;19.57;89.86
5380;BME280;2713;42.680;23.310;2023-09-07T05:39:29;95582.16;;;19.59;89.78
5380;BME280;2713;42.680;23.310;2023-09-07T05:41:56;95579.50;;;19.78;88.37
5380;BME280;2713;42.680;23.310;2023-09-07T05:44:23;95579.66;;;19.64;87.92
5380;BME280;2713;42.680;23.310;2023-09-07T05:46:50;95587.72;;;19.69;87.81
5380;BME280;2713;42.680;23.310;2023-09-07T05:49:17;95590.22;;;19.64;87.81
5380;BME280;2713;42.680;23.310;2023-09-07T05:51:44;95593.59;;;19.71;87.19
5380;BME280;2713;42.680;23.310;2023-09-07T05:54:11;95591.16;;;19.70;86.86
5380;BME280;2713;42.680;23.310;2023-09-07T05:56:39;95594.84;;;19.69;85.79
5380;BME280;2713;42.680;23.310;2023-09-07T05:59:08;95597.84;;;19.72;86.24
5380;BME280;2713;42.680;23.310;2023-09-07T06:01:35;95596.25;;;19.83;85.06
5380;BME280;2713;42.680;23.310;2023-09-07T06:04:02;95588.50;;;19.88;84.40
5380;BME280;2713;42.680;23.310;2023-09-07T06:06:29;95593.88;;;19.93;84.10
5380;BME280;2713;42.680;23.310;2023-09-07T06:08:56;95595.75;;;20.04;83.44
5380;BME280;2713;42.680;23.310;2023-09-07T06:11:24;95593.06;;;20.75;81.87
5380;BME280;2713;42.680;23.310;2023-09-07T06:13:52;95597.84;;;21.48;78.21
5380;BME280;2713;42.680;23.310;2023-09-07T06:16:19;95594.75;;;22.19;75.69
5380;BME280;2713;42.680;23.310;2023-09-07T06:18:46;95603.13;;;22.61;73.00
5380;BME280;2713;42.680;23.310;2023-09-07T06:21:13;95606.66;;;23.17;71.03
5380;BME280;2713;42.680;23.310;2023-09-07T06:23:39;95606.78;;;23.44;68.63
5380;BME280;2713;42.680;23.310;2023-09-07T06:26:07;95608.97;;;23.68;67.15
5380;BME280;2713;42.680;23.310;2023-09-07T06:28:34;95606.84;;;24.14;66.73
5380;BME280;2713;42.680;23.310;2023-09-07T06:31:02;95611.09;;;24.15;65.78
5380;BME280;2713;42.680;23.310;2023-09-07T06:33:29;95612.06;;;24.09;64.42
5380;BME280;2713;42.680;23.310;2023-09-07T06:35:56;95611.66;;;23.95;63.23
5380;BME280;2713;42.680;23.310;2023-09-07T06:38:27;95617.00;;;24.22;63.45
5380;BME280;2713;42.680;23.310;2023-09-07T06:40:54;95618.25;;;24.14;62.76
5380;BME280;2713;42.680;23.310;2023-09-07T06:43:21;95621.97;;;24.40;61.10
5380;BME280;2713;42.680;23.310;2023-09-07T06:45:48;95622.44;;;24.32;62.10
5380;BME280;2713;42.680;23.310;2023-09-07T06:48:16;95624.78;;;24.55;60.61
5380;BME280;2713;42.680;23.310;2023-09-07T06:50:43;95616.75;;;24.50;60.08
5380;BME280;2713;42.680;23.310;2023-09-07T06:53:10;95623.19;;;24.06;60.25
5380;BME280;2713;42.680;23.310;2023-09-07T06:55:37;95619.16;;;23.77;60.58
5380;BME280;2713;42.680;23.310;2023-09-07T06:58:04;95623.72;;;23.21;61.92
5380;BME280;2713;42.680;23.310;2023-09-07T07:00:31;95618.38;;;23.38;62.54
5380;BME280;2713;42.680;23.310;2023-09-07T07:02:58;95616.69;;;23.32;63.18
5380;BME280;2713;42.680;23.310;2023-09-07T07:05:26;95607.44;;;23.34;63.27
5380;BME280;2713;42.680;23.310;2023-09-07T07:07:55;95608.34;;;23.61;61.90
5380;BME280;2713;42.680;23.310;2023-09-07T07:10:22;95608.31;;;24.05;59.93
5380;BME280;2713;42.680;23.310;2023-09-07T07:12:49;95619.06;;;24.15;58.89
5380;BME280;2713;42.680;23.310;2023-09-07T07:15:16;95615.09;;;24.76;58.36
5380;BME280;2713;42.680;23.310;2023-09-07T07:17:43;95616.44;;;25.05;57.03
5380;BME280;2713;42.680;23.310;2023-09-07T07:20:11;95610.59;;;25.50;56.65
5380;BME280;2713;42.680;23.310;2023-09-07T07:22:39;95623.34;;;24.74;56.49
5380;BME280;2713;42.680;23.310;2023-09-07T07:25:07;95616.38;;;24.95;56.06
5380;BME280;2713;42.680;23.310;2023-09-07T07:27:34;95628.06;;;24.94;56.63
5380;BME280;2713;42.680;23.310;2023-09-07T07:30:01;95626.47;;;24.66;57.04
5380;BME280;2713;42.680;23.310;2023-09-07T07:32:29;95610.22;;;24.31;58.16
5380;BME280;2713;42.680;23.310;2023-09-07T07:34:55;95628.59;;;23.89;58.58
5380;BME280;2713;42.680;23.310;2023-09-07T07:37:23;95624.41;;;23.93;59.28
5380;BME280;2713;42.680;23.310;2023-09-07T07:39:51;95627.84;;;23.94;59.29
5380;BME280;2713;42.680;23.310;2023-09-07T07:42:18;95631.31;;;23.72;59.99
5380;BME280;2713;42.680;23.310;2023-09-07T07:44:46;95630.94;;;23.64;60.74
5380;BME280;2713;42.680;23.310;2023-09-07T07:47:13;95626.19;;;23.66;59.58
5380;BME280;2713;42.680;23.310;2023-09-07T07:49:40;95629.59;;;23.61;58.84
5380;BME280;2713;42.680;23.310;2023-09-07T07:52:07;95634.03;;;23.39;57.73
5380;BME280;2713;42.680;23.310;2023-09-07T07:54:34;95643.16;;;23.10;58.69
5380;BME280;2713;42.680;23.310;2023-09-07T07:57:04;95637.19;;;23.19;57.72
5380;BME280;2713;42.680;23.310;2023-09-07T07:59:33;95633.81;;;23.24;56.65
5380;BME280;2713;42.680;23.310;2023-09-07T08:02:00;95636.88;;;23.16;57.59
5380;BME280;2713;42.680;23.310;2023-09-07T08:04:28;95629.22;;;23.36;57.65
5380;BME280;2713;42.680;23.310;2023-09-07T08:06:58;95638.75;;;23.54;57.57
5380;BME280;2713;42.680;23.310;2023-09-07T08:09:30;95633.59;;;23.86;56.73
5380;BME280;2713;42.680;23.310;2023-09-07T08:11:57;95627.47;;;24.07;54.92
5380;BME280;2713;42.680;23.310;2023-09-07T08:14:26;95633.66;;;24.39;54.92
5380;BME280;2713;42.680;23.310;2023-09-07T08:16:53;95633.22;;;24.20;55.34
5380;BME280;2713;42.680;23.310;2023-09-07T08:19:20;95626.84;;;24.48;54.96
5380;BME280;2713;42.680;23.310;2023-09-07T08:21:47;95630.75;;;24.99;53.72
5380;BME280;2713;42.680;23.310;2023-09-07T08:24:14;95627.63;;;24.76;54.22
5380;BME280;2713;42.680;23.310;2023-09-07T08:26:41;95616.03;;;24.60;54.98
5380;BME280;2713;42.680;23.310;2023-09-07T08:29:08;95622.50;;;24.96;53.04
5380;BME280;2713;42.680;23.310;2023-09-07T08:31:38;95603.22;;;24.84;51.98
5380;BME280;2713;42.680;23.310;2023-09-07T08:34:06;95620.56;;;25.28;51.17
5380;BME280;2713;42.680;23.310;2023-09-07T08:36:43;95609.66;;;25.77;50.77
5380;BME280;2713;42.680;23.310;2023-09-07T08:39:12;95621.28;;;25.55;51.13
5380;BME280;2713;42.680;23.310;2023-09-07T08:41:39;95603.72;;;25.54;49.78
5380;BME280;2713;42.680;23.310;2023-09-07T08:44:09;95619.28;;;25.93;49.49
5380;BME280;2713;42.680;23.310;2023-09-07T08:46:38;95617.78;;;26.12;48.45
5380;BME280;2713;42.680;23.310;2023-09-07T08:49:05;95604.91;;;25.89;48.76
5380;BME280;2713;42.680;23.310;2023-09-07T08:51:31;95606.69;;;25.68;49.15
5380;BME280;2713;42.680;23.310;2023-09-07T08:54:00;95602.03;;;25.48;49.70
5380;BME280;2713;42.680;23.310;2023-09-07T08:56:27;95599.03;;;25.82;49.28
5380;BME280;2713;42.680;23.310;2023-09-07T08:58:54;95599.06;;;25.92;48.98
5380;BME280;2713;42.680;23.310;2023-09-07T09:01:20;95604.00;;;26.30;47.78
5380;BME280;2713;42.680;23.310;2023-09-07T09:03:49;95596.53;;;26.62;46.88
5380;BME280;2713;42.680;23.310;2023-09-07T09:06:18;95609.03;;;26.27;45.93
5380;BME280;2713;42.680;23.310;2023-09-07T09:08:45;95597.44;;;25.91;46.67
5380;BME280;2713;42.680;23.310;2023-09-07T09:11:14;95598.28;;;26.01;45.94
5380;BME280;2713;42.680;23.310;2023-09-07T09:13:42;95600.94;;;26.01;46.36
5380;BME280;2713;42.680;23.310;2023-09-07T09:16:09;95585.22;;;25.95;45.79
5380;BME280;2713;42.680;23.310;2023-09-07T09:18:36;95591.72;;;26.29;45.55
5380;BME280;2713;42.680;23.310;2023-09-07T09:21:04;95593.09;;;26.57;45.38
5380;BME280;2713;42.680;23.310;2023-09-07T09:23:33;95592.81;;;26.53;45.24
5380;BME280;2713;42.680;23.310;2023-09-07T09:26:00;95575.72;;;26.49;45.19
5380;BME280;2713;42.680;23.310;2023-09-07T09:28:30;95577.34;;;26.65;44.65
5380;BME280;2713;42.680;23.310;2023-09-07T09:30:58;95593.50;;;26.13;44.88
5380;BME280;2713;42.680;23.310;2023-09-07T09:33:25;95578.28;;;25.94;45.79
5380;BME280;2713;42.680;23.310;2023-09-07T09:35:53;95583.66;;;26.14;44.98
5380;BME280;2713;42.680;23.310;2023-09-07T09:38:21;95579.44;;;26.28;45.66
5380;BME280;2713;42.680;23.310;2023-09-07T09:40:49;95581.50;;;26.01;45.13
5380;BME280;2713;42.680;23.310;2023-09-07T09:43:16;95570.31;;;26.09;45.07
5380;BME280;2713;42.680;23.310;2023-09-07T09:45:43;95578.28;;;25.94;44.95
5380;BME280;2713;42.680;23.310;2023-09-07T09:48:10;95572.69;;;25.95;44.94
5380;BME280;2713;42.680;23.310;2023-09-07T09:50:39;95576.47;;;26.09;44.87
5380;BME280;2713;42.680;23.310;2023-09-07T09:53:07;95573.50;;;25.96;45.12
5380;BME280;2713;42.680;23.310;2023-09-07T09:55:35;95555.34;;;25.93;45.02
5380;BME280;2713;42.680;23.310;2023-09-07T09:58:02;95564.44;;;26.02;45.15
5380;BME280;2713;42.680;23.310;2023-09-07T10:00:29;95564.44;;;26.07;44.93
5380;BME280;2713;42.680;23.310;2023-09-07T10:03:02;95559.59;;;25.79;45.06
5380;BME280;2713;42.680;23.310;2023-09-07T10:05:31;95559.59;;;25.79;45.60
5380;BME280;2713;42.680;23.310;2023-09-07T10:08:07;95561.69;;;25.66;45.59
5380;BME280;2713;42.680;23.310;2023-09-07T10:10:37;95552.34;;;25.64;45.94
5380;BME280;2713;42.680;23.310;2023-09-07T10:13:04;95560.06;;;25.60;45.86
5380;BME280;2713;42.680;23.310;2023-09-07T10:15:32;95562.38;;;25.47;46.40
5380;BME280;2713;42.680;23.310;2023-09-07T10:18:09;95549.22;;;25.20;46.65
5380;BME280;2713;42.680;23.310;2023-09-07T10:20:50;95548.97;;;25.27;47.34
5380;BME280;2713;42.680;23.310;2023-09-07T10:23:17;95548.50;;;25.40;47.20
5380;BME280;2713;42.680;23.310;2023-09-07T10:25:49;95541.41;;;25.60;46.64
5380;BME280;2713;42.680;23.310;2023-09-07T10:28:21;95545.19;;;25.80;45.90
5380;BME280;2713;42.680;23.310;2023-09-07T10:30:58;95548.34;;;25.61;46.95
5380;BME280;2713;42.680;23.310;2023-09-07T10:33:25;95547.13;;;25.27;46.42
5380;BME280;2713;42.680;23.310;2023-09-07T10:35:52;95542.28;;;25.24;47.05
5380;BME280;2713;42.680;23.310;2023-09-07T10:38:19;95546.03;;;25.23;47.33
5380;BME280;2713;42.680;23.310;2023-09-07T10:40:46;95544.94;;;25.19;47.49
5380;BME280;2713;42.680;23.310;2023-09-07T10:43:15;95548.22;;;25.41;46.94
5380;BME280;2713;42.680;23.310;2023-09-07T10:45:44;95549.84;;;25.42;46.53
5380;BME280;2713;42.680;23.310;2023-09-07T10:48:12;95542.78;;;25.16;47.22
5380;BME280;2713;42.680;23.310;2023-09-07T10:50:43;95542.75;;;25.11;47.50
5380;BME280;2713;42.680;23.310;2023-09-07T10:53:14;95518.59;;;25.22;46.96
5380;BME280;2713;42.680;23.310;2023-09-07T10:55:41;95524.59;;;25.55;46.22
5380;BME280;2713;42.680;23.310;2023-09-07T10:58:09;95532.97;;;25.84;45.95
5380;BME280;2713;42.680;23.310;2023-09-07T11:00:38;95535.09;;;25.87;45.88
5380;BME280;2713;42.680;23.310;2023-09-07T11:03:08;95530.03;;;25.80;46.10
5380;BME280;2713;42.680;23.310;2023-09-07T11:05:37;95542.25;;;25.76;45.32
5380;BME280;2713;42.680;23.310;2023-09-07T11:08:06;95540.41;;;25.77;46.19
5380;BME280;2713;42.680;23.310;2023-09-07T11:10:34;95535.56;;;25.63;45.88
5380;BME280;2713;42.680;23.310;2023-09-07T11:13:02;95536.66;;;25.67;46.48
5380;BME280;2713;42.680;23.310;2023-09-07T11:15:30;95523.34;;;25.67;45.88
5380;BME280;2713;42.680;23.310;2023-09-07T11:18:03;95532.91;;;25.63;46.54
5380;BME280;2713;42.680;23.310;2023-09-07T11:20:30;95527.34;;;25.65;46.18
5380;BME280;2713;42.680;23.310;2023-09-07T11:22:57;95527.50;;;25.48;47.25
5380;BME280;2713;42.680;23.310;2023-09-07T11:25:25;95529.00;;;25.29;47.14
5380;BME280;2713;42.680;23.310;2023-09-07T11:27:52;95533.81;;;25.27;48.16
5380;BME280;2713;42.680;23.310;2023-09-07T11:30:20;95526.06;;;25.20;47.65
5380;BME280;2713;42.680;23.310;2023-09-07T11:32:47;95529.50;;;25.16;47.55
5380;BME280;2713;42.680;23.310;2023-09-07T11:35:15;95526.28;;;25.14;47.95
5380;BME280;2713;42.680;23.310;2023-09-07T11:37:42;95524.59;;;24.98;48.77
5380;BME280;2713;42.680;23.310;2023-09-07T11:40:10;95527.53;;;25.01;48.84
5380;BME280;2713;42.680;23.310;2023-09-07T11:42:38;95522.56;;;25.10;48.19
5380;BME280;2713;42.680;23.310;2023-09-07T11:45:06;95527.66;;;25.21;48.63
5380;BME280;2713;42.680;23.310;2023-09-07T11:47:35;95524.75;;;25.23;48.38
5380;BME280;2713;42.680;23.310;2023-09-07T11:50:03;95529.50;;;25.21;48.25
5380;BME280;2713;42.680;23.310;2023-09-07T11:52:31;95524.47;;;25.19;48.43
5380;BME280;2713;42.680;23.310;2023-09-07T11:54:58;95517.59;;;25.34;49.45
5380;BME280;2713;42.680;23.310;2023-09-07T11:57:25;95514.81;;;25.03;48.71
5380;BME280;2713;42.680;23.310;2023-09-07T11:59:52;95513.72;;;25.04;48.75
5380;BME280;2713;42.680;23.310;2023-09-07T12:02:19;95515.47;;;24.84;48.58
5380;BME280;2713;42.680;23.310;2023-09-07T12:04:46;95516.84;;;24.86;48.55
5380;BME280;2713;42.680;23.310;2023-09-07T12:07:13;95512.88;;;24.94;48.47
5380;BME280;2713;42.680;23.310;2023-09-07T12:09:42;95512.28;;;24.87;48.62
5380;BME280;2713;42.680;23.310;2023-09-07T12:12:09;95517.13;;;24.95;48.63
5380;BME280;2713;42.680;23.310;2023-09-07T12:14:37;95513.44;;;24.96;48.47
5380;BME280;2713;42.680;23.310;2023-09-07T12:17:03;95504.97;;;25.09;48.36
5380;BME280;2713;42.680;23.310;2023-09-07T12:19:30;95504.44;;;25.07;47.81
5380;BME280;2713;42.680;23.310;2023-09-07T12:21:57;95505.47;;;25.01;47.39
5380;BME280;2713;42.680;23.310;2023-09-07T12:24:24;95505.22;;;25.02;47.63
5380;BME280;2713;42.680;23.310;2023-09-07T12:26:52;95505.97;;;24.98;47.29
5380;BME280;2713;42.680;23.310;2023-09-07T12:29:19;95509.97;;;25.00;47.95
5380;BME280;2713;42.680;23.310;2023-09-07T12:31:46;95508.22;;;25.16;47.57
5380;BME280;2713;42.680;23.310;2023-09-07T12:34:13;95505.97;;;24.98;47.40
5380;BME280;2713;42.680;23.310;2023-09-07T12:36:40;95498.81;;;24.98;48.28
5380;BME280;2713;42.680;23.310;2023-09-07T12:39:06;95504.97;;;25.14;48.08
5380;BME280;2713;42.680;23.310;2023-09-07T12:41:33;95503.63;;;25.06;47.43
5380;BME280;2713;42.680;23.310;2023-09-07T12:44:02;95505.97;;;24.98;47.21
5380;BME280;2713;42.680;23.310;2023-09-07T12:46:29;95505.97;;;24.93;47.82
5380;BME280;2713;42.680;23.310;2023-09-07T12:48:55;95499.84;;;24.97;47.29
5380;BME280;2713;42.680;23.310;2023-09-07T12:51:22;95512.84;;;24.89;47.89
5380;BME280;2713;42.680;23.310;2023-09-07T12:53:55;95508.91;;;24.96;48.07
5380;BME280;2713;42.680;23.310;2023-09-07T12:56:22;95514.00;;;25.08;47.29
5380;BME280;2713;42.680;23.310;2023-09-07T12:58:49;95514.47;;;24.95;47.14
5380;BME280;2713;42.680;23.310;2023-09-07T13:01:19;95519.78;;;24.90;47.49
5380;BME280;2713;42.680;23.310;2023-09-07T13:03:46;95507.59;;;24.99;48.03
5380;BME280;2713;42.680;23.310;2023-09-07T13:06:13;95515.28;;;25.00;47.54
5380;BME280;2713;42.680;23.310;2023-09-07T13:08:42;95525.09;;;24.90;47.66
5380;BME280;2713;42.680;23.310;2023-09-07T13:11:10;95522.47;;;24.95;48.17
5380;BME280;2713;42.680;23.310;2023-09-07T13:13:37;95524.53;;;24.83;47.83